Naples, Florida
Current Conditions -  °F | °C
As of 3:53 AM on Monday 20 Oct 2014 (Local Time) from KAPF Reporting Station
Clear Clear  
Wind Chill: 69°   Ceiling: Unl
Heat Index: 69°   Visibility: 10mi
Dew Point: 66°   Wind: 5mph
Humidity: 90%   Direction: 70°ENE
Pressure: 29.98"   Gusts: NA
Location:  26.14°N, 81.79°W
Report Text: KAPF 200753Z AUTO 07004KT 10SM CLR 21/19 A2998 RMK AO2 SLP151 T02060189 $
Loading
Personal Weather Stations






























Interactive Weather Map New forecast layout! Learn more

10-Day Weather Forecast

Advertisements
Track Severe Weather on mobile